createdAt,value
2022-09-07T00:00:27.978Z,11.15
2022-09-07T00:02:29.821Z,13.63
2022-09-07T00:04:31.683Z,13.55
2022-09-07T00:06:33.664Z,15.27
2022-09-07T00:08:35.476Z,14.27
2022-09-07T00:10:37.626Z,12.70
2022-09-07T00:12:40.036Z,12.65
2022-09-07T00:14:41.848Z,13.98
2022-09-07T00:16:43.626Z,13.65
2022-09-07T00:18:46.433Z,18.60
2022-09-07T00:20:59.022Z,15.25
2022-09-07T00:23:00.815Z,15.02
2022-09-07T00:25:02.855Z,12.43
2022-09-07T00:27:04.804Z,12.35
2022-09-07T00:29:06.605Z,12.93
2022-09-07T00:31:15.417Z,12.82
2022-09-07T00:33:17.268Z,12.75
2022-09-07T00:35:19.096Z,14.85
2022-09-07T00:37:20.960Z,13.05
2022-09-07T00:39:22.735Z,10.60
2022-09-07T00:41:24.863Z,12.65
2022-09-07T00:43:54.155Z,13.88
2022-09-07T00:45:56.248Z,15.52
2022-09-07T00:48:17.587Z,10.85
2022-09-07T00:50:40.145Z,12.90
2022-09-07T00:52:44.687Z,14.48
2022-09-07T00:54:51.243Z,12.60
2022-09-07T00:56:54.012Z,13.50
2022-09-07T00:58:56.531Z,12.25
2022-09-07T01:00:58.332Z,12.95
2022-09-07T01:03:01.535Z,14.05
2022-09-07T01:05:41.438Z,12.90
2022-09-07T01:07:44.067Z,12.35
2022-09-07T01:09:47.336Z,15.32
2022-09-07T01:11:50.758Z,11.80
2022-09-07T01:13:54.047Z,12.57
2022-09-07T01:16:17.023Z,15.65
2022-09-07T01:18:55.551Z,12.68
2022-09-07T01:21:21.457Z,13.57
2022-09-07T01:23:52.207Z,14.05
2022-09-07T01:26:32.294Z,16.20
2022-09-07T01:28:35.563Z,14.15
2022-09-07T01:30:39.693Z,11.65
2022-09-07T01:32:53.563Z,13.38
2022-09-07T01:34:55.367Z,13.73
2022-09-07T01:37:21.427Z,13.02
2022-09-07T01:39:29.704Z,10.40
2022-09-07T01:41:50.305Z,10.98
2022-09-07T01:44:12.225Z,11.30
2022-09-07T01:46:29.778Z,13.95
2022-09-07T01:48:33.817Z,14.55
2022-09-07T01:50:45.604Z,11.07
2022-09-07T01:53:12.044Z,12.45
2022-09-07T01:55:18.983Z,12.95
2022-09-07T01:57:32.259Z,14.30
2022-09-07T01:59:48.622Z,10.10
2022-09-07T02:02:04.327Z,11.07
2022-09-07T02:04:11.450Z,11.13
2022-09-07T02:06:48.704Z,12.88
2022-09-07T02:09:05.031Z,13.65
2022-09-07T02:11:28.825Z,11.20
2022-09-07T02:13:40.376Z,11.55
2022-09-07T02:15:48.048Z,12.15
2022-09-07T02:17:56.127Z,13.90
2022-09-07T02:20:06.474Z,10.93
2022-09-07T02:22:13.719Z,13.13
2022-09-07T02:24:25.274Z,12.85
2022-09-07T02:26:28.894Z,12.05
2022-09-07T02:28:33.568Z,13.88
2022-09-07T02:30:35.475Z,10.80
2022-09-07T02:32:37.518Z,13.30
2022-09-07T02:34:39.403Z,12.50
2022-09-07T02:36:46.000Z,12.07
2022-09-07T02:38:47.835Z,16.80
2022-09-07T02:40:51.640Z,11.35
2022-09-07T02:42:53.545Z,10.48
2022-09-07T02:44:55.720Z,12.27
2022-09-07T02:47:35.864Z,12.27
2022-09-07T02:50:16.212Z,10.73
2022-09-07T02:52:36.024Z,17.75
2022-09-07T02:55:07.335Z,11.80
2022-09-07T02:57:16.015Z,14.05
2022-09-07T02:59:46.708Z,13.02
2022-09-07T03:02:02.486Z,12.30
2022-09-07T03:04:19.391Z,12.93
2022-09-07T03:06:30.813Z,13.02
2022-09-07T03:08:38.420Z,18.50
2022-09-07T03:10:41.459Z,16.35
2022-09-07T03:12:46.695Z,11.65
2022-09-07T03:14:48.523Z,26.40
2022-09-07T03:16:53.708Z,14.82
2022-09-07T03:18:55.528Z,15.77
2022-09-07T03:20:57.611Z,17.67
2022-09-07T03:22:59.475Z,13.55
2022-09-07T03:25:01.361Z,13.75
2022-09-07T03:27:03.240Z,13.68
2022-09-07T03:29:05.106Z,14.85
2022-09-07T03:31:06.893Z,13.75
2022-09-07T03:33:08.724Z,12.00
2022-09-07T03:35:10.722Z,15.07
2022-09-07T03:37:12.506Z,16.25
2022-09-07T03:39:14.318Z,11.35
2022-09-07T03:41:16.199Z,15.60
2022-09-07T03:43:17.993Z,15.57
2022-09-07T03:45:19.887Z,13.55
2022-09-07T03:47:21.660Z,12.73
2022-09-07T03:49:23.499Z,15.10
2022-09-07T03:51:25.582Z,10.13
2022-09-07T03:53:27.865Z,13.50
2022-09-07T03:55:29.675Z,13.82
2022-09-07T03:57:31.576Z,14.50
2022-09-07T03:59:33.466Z,13.80
2022-09-07T04:01:35.321Z,14.13
2022-09-07T04:03:38.173Z,13.90
2022-09-07T04:05:39.979Z,13.67
2022-09-07T04:07:41.742Z,13.88
2022-09-07T04:09:43.615Z,11.10
2022-09-07T04:11:45.415Z,13.05
2022-09-07T04:13:47.250Z,13.48
2022-09-07T04:15:53.366Z,24.00
2022-09-07T04:17:55.736Z,20.40
2022-09-07T04:19:57.506Z,18.90
2022-09-07T04:21:59.439Z,25.23
2022-09-07T04:24:01.363Z,17.08
2022-09-07T04:26:03.176Z,26.02
2022-09-07T04:28:05.158Z,26.10
2022-09-07T04:30:07.542Z,21.10
2022-09-07T04:32:12.388Z,18.17
2022-09-07T04:34:16.911Z,19.23
2022-09-07T04:36:19.636Z,18.50
2022-09-07T04:38:21.448Z,15.60
2022-09-07T04:40:23.244Z,17.00
2022-09-07T04:42:25.024Z,15.15
2022-09-07T04:44:26.842Z,18.73
2022-09-07T04:46:33.362Z,17.63
2022-09-07T04:48:35.247Z,16.63
2022-09-07T04:50:37.006Z,19.00
2022-09-07T04:52:38.825Z,15.82
2022-09-07T04:54:40.630Z,13.68
2022-09-07T04:56:42.389Z,15.30
2022-09-07T04:58:45.438Z,12.15
2022-09-07T05:00:47.294Z,13.52
2022-09-07T05:02:49.471Z,14.88
2022-09-07T05:04:51.417Z,12.00
2022-09-07T05:06:54.450Z,12.32
2022-09-07T05:08:58.257Z,14.48
2022-09-07T05:11:00.015Z,14.23
2022-09-07T05:13:01.888Z,14.98
2022-09-07T05:15:04.824Z,11.57
2022-09-07T05:17:06.591Z,15.18
2022-09-07T05:19:12.242Z,10.95
2022-09-07T05:21:16.432Z,8.55
2022-09-07T05:23:18.316Z,9.30
2022-09-07T05:25:20.171Z,6.75
2022-09-07T05:27:21.963Z,8.18
2022-09-07T05:31:45.801Z,8.05
2022-09-07T05:36:11.458Z,10.50
2022-09-07T05:38:13.222Z,9.52
2022-09-07T05:40:15.283Z,7.65
2022-09-07T05:42:17.099Z,9.13
2022-09-07T05:46:40.733Z,19.83
2022-09-07T05:48:44.277Z,7.43
2022-09-07T05:50:52.999Z,10.18
2022-09-07T05:52:54.816Z,7.82
2022-09-07T05:55:07.459Z,10.85
2022-09-07T05:57:18.379Z,15.82
2022-09-07T05:59:20.160Z,17.60
2022-09-07T06:01:21.936Z,19.08
2022-09-07T06:03:23.851Z,17.02
2022-09-07T06:05:25.738Z,16.75
2022-09-07T06:07:27.498Z,14.95
2022-09-07T06:09:30.726Z,8.95
2022-09-07T06:11:32.662Z,8.60
2022-09-07T06:13:34.923Z,9.70
2022-09-07T06:15:36.747Z,7.00
2022-09-07T06:17:38.710Z,9.05
2022-09-07T06:19:40.501Z,7.90
2022-09-07T06:21:42.277Z,6.82
2022-09-07T06:23:45.064Z,8.80
2022-09-07T06:25:50.420Z,6.73
2022-09-07T06:27:52.186Z,5.28
2022-09-07T06:29:54.282Z,7.07
2022-09-07T06:34:17.866Z,6.10
2022-09-07T06:36:24.227Z,7.60
2022-09-07T06:38:31.813Z,8.35
2022-09-07T06:40:34.136Z,7.38
2022-09-07T06:42:36.139Z,6.57
2022-09-07T06:44:37.921Z,6.25
2022-09-07T06:49:01.479Z,7.30
2022-09-07T06:51:20.386Z,6.35
2022-09-07T06:53:39.518Z,6.68
2022-09-07T06:55:45.179Z,6.35
2022-09-07T06:57:47.044Z,6.10
2022-09-07T06:59:48.818Z,6.35
2022-09-07T07:01:50.560Z,7.10
2022-09-07T07:03:54.094Z,5.00
2022-09-07T07:05:57.606Z,4.00
2022-09-07T07:10:01.059Z,5.53
2022-09-07T07:12:03.109Z,6.88
2022-09-07T07:14:04.961Z,4.47
2022-09-07T07:16:17.123Z,5.40
2022-09-07T07:18:21.382Z,5.07
2022-09-07T07:20:23.324Z,6.10
2022-09-07T07:24:46.912Z,6.07
2022-09-07T07:26:48.766Z,7.47
2022-09-07T07:29:07.099Z,6.32
2022-09-07T07:31:13.012Z,6.70
2022-09-07T07:33:15.186Z,9.68
2022-09-07T07:35:17.058Z,7.25
2022-09-07T07:37:18.779Z,4.60
2022-09-07T07:42:00.309Z,5.97
2022-09-07T07:44:04.125Z,5.80
2022-09-07T07:46:06.787Z,5.88
2022-09-07T07:48:11.963Z,12.27
2022-09-07T07:54:59.578Z,5.38
2022-09-07T07:57:01.334Z,4.70
2022-09-07T07:59:03.131Z,5.18
2022-09-07T08:01:13.069Z,6.88
2022-09-07T08:03:14.925Z,6.22
2022-09-07T08:05:16.746Z,6.00
2022-09-07T08:07:19.504Z,4.93
2022-09-07T08:09:21.269Z,7.47
2022-09-07T08:11:22.999Z,9.40
2022-09-07T08:13:24.735Z,5.93
2022-09-07T08:15:26.501Z,4.70
2022-09-07T08:17:28.260Z,8.77
2022-09-07T08:19:30.021Z,6.82
2022-09-07T08:21:31.780Z,4.75
2022-09-07T08:23:33.904Z,5.40
2022-09-07T08:25:36.007Z,5.25
2022-09-07T08:27:37.744Z,8.93
2022-09-07T08:29:39.500Z,3.70
2022-09-07T08:31:41.305Z,3.60
2022-09-07T08:33:43.381Z,4.43
2022-09-07T08:35:56.266Z,5.18
2022-09-07T08:37:57.987Z,4.93
2022-09-07T08:39:59.763Z,3.40
2022-09-07T08:42:36.720Z,6.55
2022-09-07T08:45:04.554Z,6.38
2022-09-07T08:47:41.769Z,7.85
2022-09-07T08:49:49.942Z,7.03
2022-09-07T08:51:59.147Z,5.13
2022-09-07T08:54:01.590Z,7.88
2022-09-07T08:56:11.364Z,4.30
2022-09-07T08:58:32.602Z,4.45
2022-09-07T09:00:36.914Z,3.78
2022-09-07T09:02:43.939Z,3.17
2022-09-07T09:07:25.810Z,6.35
2022-09-07T09:09:55.431Z,5.35
2022-09-07T09:12:12.234Z,3.60
2022-09-07T09:16:55.100Z,3.15
2022-09-07T09:19:39.587Z,5.00
2022-09-07T09:21:42.223Z,3.20
2022-09-07T09:23:46.503Z,2.97
2022-09-07T09:26:02.367Z,2.92
2022-09-07T09:28:04.111Z,4.28
2022-09-07T09:30:18.723Z,3.47
2022-09-07T09:32:36.579Z,5.20
2022-09-07T09:34:38.381Z,5.03
2022-09-07T09:36:48.443Z,3.80
2022-09-07T09:38:50.218Z,7.72
2022-09-07T09:40:53.370Z,4.80
2022-09-07T09:43:24.799Z,6.10
2022-09-07T09:45:29.951Z,6.38
2022-09-07T09:47:35.150Z,5.00
2022-09-07T09:49:40.121Z,8.10
2022-09-07T09:54:24.643Z,3.03
2022-09-07T09:56:41.002Z,5.78
2022-09-07T10:01:27.253Z,4.57
2022-09-07T10:05:54.010Z,3.45
2022-09-07T10:07:55.830Z,5.18
2022-09-07T10:09:57.722Z,8.52
2022-09-07T10:12:08.828Z,7.18
2022-09-07T10:14:34.398Z,7.22
2022-09-07T10:16:42.900Z,6.75
2022-09-07T10:18:58.958Z,5.72
2022-09-07T10:21:18.833Z,5.50
2022-09-07T10:23:24.433Z,10.93
2022-09-07T10:25:40.418Z,2.55
2022-09-07T10:27:43.385Z,2.13
2022-09-07T10:29:45.180Z,8.50
2022-09-07T10:32:24.933Z,4.90
2022-09-07T10:34:46.321Z,2.80
2022-09-07T10:37:03.915Z,3.15
2022-09-07T10:39:15.098Z,2.17
2022-09-07T10:41:20.422Z,3.60
2022-09-07T10:43:48.302Z,6.07
2022-09-07T10:46:15.360Z,5.50
2022-09-07T10:49:19.448Z,2.67
2022-09-07T10:51:33.205Z,4.03
2022-09-07T10:53:42.177Z,4.40
2022-09-07T10:56:00.013Z,5.30
2022-09-07T10:59:01.452Z,5.20
2022-09-07T11:01:28.326Z,2.78
2022-09-07T11:03:56.036Z,8.00
2022-09-07T11:06:30.431Z,7.55
2022-09-07T11:11:12.319Z,3.53
2022-09-07T11:13:21.080Z,2.22
2022-09-07T11:15:50.682Z,5.95
2022-09-07T11:17:57.855Z,2.72
2022-09-07T11:20:18.191Z,3.85
2022-09-07T11:22:22.536Z,7.18
2022-09-07T11:24:31.446Z,2.58
2022-09-07T11:26:50.784Z,3.22
2022-09-07T11:31:46.188Z,2.28
2022-09-07T11:36:21.617Z,2.88
2022-09-07T11:38:29.665Z,6.57
2022-09-07T11:40:35.330Z,4.70
2022-09-07T11:42:52.669Z,4.18
2022-09-07T11:45:22.182Z,2.85
2022-09-07T11:47:59.411Z,7.35
2022-09-07T11:50:01.303Z,19.15
2022-09-07T11:52:08.489Z,4.13
2022-09-07T11:54:42.168Z,4.43
2022-09-07T11:56:49.389Z,4.90
2022-09-07T11:59:03.233Z,3.50
2022-09-07T12:01:27.304Z,3.75
2022-09-07T12:03:40.940Z,4.32
2022-09-07T12:06:00.377Z,3.65
2022-09-07T12:08:20.226Z,4.53
2022-09-07T12:10:42.649Z,19.70
2022-09-07T12:12:44.317Z,4.85
2022-09-07T12:15:03.544Z,9.02
2022-09-07T12:17:13.653Z,17.38
2022-09-07T12:19:15.523Z,6.03
2022-09-07T12:21:52.998Z,4.60
2022-09-07T12:23:54.839Z,4.40
2022-09-07T12:26:34.901Z,7.25
2022-09-07T12:28:56.593Z,4.38
2022-09-07T12:31:03.774Z,8.80
2022-09-07T12:33:26.989Z,3.22
2022-09-07T12:35:28.753Z,1.90
2022-09-07T12:37:36.966Z,5.80
2022-09-07T12:39:38.798Z,3.80
2022-09-07T12:41:44.645Z,4.22
2022-09-07T12:43:48.412Z,4.78
2022-09-07T12:45:52.328Z,4.03
2022-09-07T12:47:59.676Z,2.53
2022-09-07T12:50:28.481Z,3.33
2022-09-07T12:52:42.739Z,3.67
2022-09-07T12:55:10.007Z,2.80
2022-09-07T12:57:31.837Z,5.75
2022-09-07T12:59:57.771Z,3.20
2022-09-07T13:02:41.769Z,1.63
2022-09-07T13:05:11.800Z,3.38
2022-09-07T13:07:25.391Z,5.53
2022-09-07T13:09:35.481Z,6.90
2022-09-07T13:11:39.199Z,4.40
2022-09-07T13:16:05.935Z,4.57
2022-09-07T13:18:30.642Z,4.45
2022-09-07T13:20:37.534Z,4.45
2022-09-07T13:22:40.934Z,3.70
2022-09-07T13:24:50.387Z,5.68
2022-09-07T13:26:53.987Z,8.60
2022-09-07T13:29:03.991Z,3.55
2022-09-07T13:31:39.311Z,4.18
2022-09-07T13:33:49.905Z,5.20
2022-09-07T13:36:03.014Z,47.53
2022-09-07T13:38:05.324Z,65.68
2022-09-07T13:40:11.692Z,6.97
2022-09-07T13:42:19.702Z,16.20
2022-09-07T13:44:32.729Z,21.92
2022-09-07T13:46:53.398Z,18.70
2022-09-07T13:49:06.119Z,32.30
2022-09-07T13:51:34.403Z,80.07
2022-09-07T13:53:57.772Z,154.77
2022-09-07T13:56:08.315Z,6.07
2022-09-07T13:58:19.611Z,6.85
2022-09-07T14:00:21.420Z,33.22
2022-09-07T14:02:29.564Z,7.95
2022-09-07T14:04:44.360Z,14.52
2022-09-07T14:06:46.120Z,22.23
2022-09-07T14:08:50.243Z,10.65
2022-09-07T14:10:52.068Z,4.82
2022-09-07T14:13:12.150Z,58.80
2022-09-07T14:15:25.828Z,30.58
2022-09-07T14:17:27.946Z,16.38
2022-09-07T14:20:02.367Z,4.97
2022-09-07T14:22:13.549Z,58.50
2022-09-07T14:24:24.624Z,4.07
2022-09-07T14:26:26.455Z,11.57
2022-09-07T14:28:30.863Z,6.05
2022-09-07T14:30:33.434Z,9.27
2022-09-07T14:32:35.957Z,46.30
2022-09-07T14:34:38.212Z,14.73
2022-09-07T14:36:45.395Z,9.60
2022-09-07T14:39:05.240Z,30.67
2022-09-07T14:41:11.978Z,21.83
2022-09-07T14:43:30.630Z,8.88
2022-09-07T14:45:33.998Z,3.92
2022-09-07T14:47:35.983Z,5.13
2022-09-07T14:49:37.907Z,4.57
2022-09-07T14:51:44.553Z,4.43
2022-09-07T14:53:55.160Z,8.43
2022-09-07T14:56:10.045Z,10.43
2022-09-07T14:58:14.622Z,4.63
2022-09-07T15:00:31.472Z,5.35
2022-09-07T15:02:37.091Z,8.30
2022-09-07T15:04:39.025Z,3.70
2022-09-07T15:09:05.736Z,4.07
2022-09-07T15:13:36.142Z,5.60
2022-09-07T15:15:38.653Z,4.05
2022-09-07T15:17:43.961Z,5.57
2022-09-07T15:19:46.175Z,3.13
2022-09-07T15:21:48.011Z,3.95
2022-09-07T15:23:54.460Z,3.15
2022-09-07T15:25:56.343Z,4.35
2022-09-07T15:27:58.641Z,4.65
2022-09-07T15:30:00.400Z,5.63
2022-09-07T15:32:04.869Z,5.60
2022-09-07T15:34:10.349Z,3.22
2022-09-07T15:36:14.098Z,7.20
2022-09-07T15:41:22.021Z,4.45
2022-09-07T15:43:21.469Z,3.45
2022-09-07T15:45:32.746Z,2.85
2022-09-07T15:47:51.995Z,2.97
2022-09-07T15:49:54.858Z,4.25
2022-09-07T15:52:11.748Z,3.50
2022-09-07T15:54:15.914Z,3.63
2022-09-07T15:56:20.090Z,4.70
2022-09-07T15:58:22.283Z,7.32
2022-09-07T16:00:24.287Z,7.30
2022-09-07T16:04:48.286Z,11.20
2022-09-07T16:06:50.097Z,9.15
2022-09-07T16:08:52.410Z,8.32
2022-09-07T16:10:55.892Z,9.32
2022-09-07T16:13:16.768Z,13.60
2022-09-07T16:15:18.815Z,13.48
2022-09-07T16:17:34.722Z,12.77
2022-09-07T16:19:41.108Z,8.18
2022-09-07T16:21:43.047Z,8.35
2022-09-07T16:23:48.051Z,9.07
2022-09-07T16:26:01.423Z,12.73
2022-09-07T16:28:05.808Z,13.23
2022-09-07T16:30:08.359Z,11.80
2022-09-07T16:34:32.885Z,11.02
2022-09-07T16:36:34.663Z,13.10
2022-09-07T16:38:44.445Z,16.50
2022-09-07T16:40:46.874Z,18.70
2022-09-07T16:42:48.651Z,12.80
2022-09-07T16:44:52.182Z,24.25
2022-09-07T16:46:54.180Z,30.52
2022-09-07T16:48:55.968Z,80.47
2022-09-07T16:51:01.910Z,100.75
2022-09-07T16:53:04.207Z,66.38
2022-09-07T16:55:06.129Z,51.60
2022-09-07T16:57:07.916Z,32.80
2022-09-07T16:59:12.559Z,28.17
2022-09-07T17:01:16.891Z,32.10
2022-09-07T17:03:18.648Z,26.63
2022-09-07T17:05:21.853Z,33.60
2022-09-07T17:07:23.657Z,32.92
2022-09-07T17:09:25.461Z,40.80
2022-09-07T17:11:30.656Z,39.75
2022-09-07T17:13:33.685Z,61.95
2022-09-07T17:15:36.106Z,65.57
2022-09-07T17:17:37.906Z,68.53
2022-09-07T17:19:40.985Z,53.47
2022-09-07T17:21:42.927Z,51.53
2022-09-07T17:23:53.994Z,43.17
2022-09-07T17:26:08.320Z,42.40
2022-09-07T17:28:10.052Z,41.35
2022-09-07T17:30:12.452Z,52.75
2022-09-07T17:32:29.627Z,72.47
2022-09-07T17:34:31.584Z,68.10
2022-09-07T17:36:33.401Z,60.83
2022-09-07T17:40:57.550Z,71.38
2022-09-07T17:45:21.023Z,60.10
2022-09-07T17:47:22.895Z,57.63
2022-09-07T17:49:24.657Z,42.47
2022-09-07T17:51:28.905Z,35.22
2022-09-07T17:53:30.708Z,31.30
2022-09-07T17:55:32.491Z,32.67
2022-09-07T17:57:34.219Z,30.55
2022-09-07T18:01:58.073Z,23.92
2022-09-07T18:03:59.833Z,24.20
2022-09-07T18:06:02.070Z,22.08
2022-09-07T18:08:03.954Z,21.17
2022-09-07T18:10:06.052Z,26.08
2022-09-07T18:12:07.935Z,21.50
2022-09-07T18:14:09.728Z,17.05
2022-09-07T18:16:29.663Z,15.63
2022-09-07T18:18:31.477Z,18.52
2022-09-07T18:20:34.460Z,20.65
2022-09-07T18:22:36.321Z,19.73
2022-09-07T18:24:38.112Z,25.42
2022-09-07T18:26:39.874Z,26.83
2022-09-07T18:33:11.605Z,19.00
2022-09-07T18:35:13.464Z,21.65
2022-09-07T18:37:15.231Z,19.00
2022-09-07T18:39:17.410Z,14.50
2022-09-07T18:41:19.867Z,15.68
2022-09-07T18:43:21.584Z,17.63
2022-09-07T18:45:30.455Z,13.65
2022-09-07T18:47:32.206Z,15.15
2022-09-07T18:49:37.745Z,17.85
2022-09-07T18:54:01.307Z,14.82
2022-09-07T18:56:08.097Z,24.15
2022-09-07T18:58:09.892Z,19.15
2022-09-07T19:00:12.889Z,16.17
2022-09-07T19:02:14.753Z,13.00
2022-09-07T19:04:16.637Z,17.17
2022-09-07T19:06:18.432Z,17.65
2022-09-07T19:08:20.197Z,11.23
2022-09-07T19:10:22.012Z,15.25
2022-09-07T19:12:23.924Z,14.52
2022-09-07T19:14:27.434Z,18.65
2022-09-07T19:16:29.325Z,17.20
2022-09-07T19:18:36.166Z,16.52
2022-09-07T19:20:38.154Z,16.42
2022-09-07T19:22:39.935Z,18.17
2022-09-07T19:24:41.668Z,17.85
2022-09-07T19:26:47.960Z,20.05
2022-09-07T19:28:54.311Z,15.82
2022-09-07T19:31:01.223Z,52.05
2022-09-07T19:33:04.502Z,19.52
2022-09-07T19:35:06.833Z,24.90
2022-09-07T19:37:10.620Z,21.10
2022-09-07T19:39:12.418Z,24.90
2022-09-07T19:41:14.365Z,23.35
2022-09-07T19:43:16.218Z,21.70
2022-09-07T19:45:17.947Z,25.58
2022-09-07T19:47:20.413Z,18.73
2022-09-07T19:49:22.360Z,25.60
2022-09-07T19:51:24.114Z,21.77
2022-09-07T19:53:25.865Z,20.65
2022-09-07T19:55:27.599Z,21.52
2022-09-07T19:57:29.789Z,22.05
2022-09-07T19:59:33.951Z,21.02
2022-09-07T20:01:36.398Z,20.67
2022-09-07T20:03:39.157Z,26.88
2022-09-07T20:05:41.236Z,28.70
2022-09-07T20:07:43.310Z,25.80
2022-09-07T20:09:45.067Z,29.85
2022-09-07T20:11:47.697Z,28.52
2022-09-07T20:13:49.609Z,28.70
2022-09-07T20:15:51.437Z,17.58
2022-09-07T20:17:53.191Z,21.75
2022-09-07T20:19:54.918Z,17.25
2022-09-07T20:21:56.692Z,19.80
2022-09-07T20:23:58.421Z,21.23
2022-09-07T20:26:02.608Z,21.25
2022-09-07T20:28:04.339Z,20.52
2022-09-07T20:30:06.739Z,22.95
2022-09-07T20:32:08.529Z,20.23
2022-09-07T20:34:11.125Z,17.73
2022-09-07T20:36:17.990Z,19.85
2022-09-07T20:38:20.038Z,20.45
2022-09-07T20:40:21.846Z,22.80
2022-09-07T20:42:23.629Z,21.73
2022-09-07T20:44:25.423Z,32.50
2022-09-07T20:46:28.665Z,28.98
2022-09-07T20:48:30.625Z,23.35
2022-09-07T20:50:32.348Z,20.70
2022-09-07T20:52:34.071Z,24.23
2022-09-07T20:54:35.843Z,25.50
2022-09-07T20:56:37.713Z,24.60
2022-09-07T20:58:40.265Z,27.95
2022-09-07T21:00:42.079Z,26.35
2022-09-07T21:02:43.898Z,23.63
2022-09-07T21:04:45.651Z,22.00
2022-09-07T21:06:47.430Z,25.88
2022-09-07T21:08:50.323Z,26.25
2022-09-07T21:10:52.095Z,24.75
2022-09-07T21:12:54.589Z,22.60
2022-09-07T21:14:56.383Z,23.17
2022-09-07T21:16:58.111Z,26.50
2022-09-07T21:19:01.213Z,29.83
2022-09-07T21:21:19.386Z,24.23
2022-09-07T21:23:22.943Z,25.00
2022-09-07T21:25:24.774Z,29.73
2022-09-07T21:27:26.536Z,29.10
2022-09-07T21:29:28.277Z,25.73
2022-09-07T21:31:31.377Z,29.88
2022-09-07T21:33:35.258Z,31.50
2022-09-07T21:35:37.006Z,30.75
2022-09-07T21:37:38.780Z,36.35
2022-09-07T21:39:40.580Z,26.42
2022-09-07T21:41:43.324Z,27.77
2022-09-07T21:43:45.475Z,23.17
2022-09-07T21:45:47.212Z,27.30
2022-09-07T21:47:48.966Z,23.63
2022-09-07T21:49:51.287Z,28.95
2022-09-07T21:51:53.019Z,30.17
2022-09-07T21:53:56.658Z,29.27
2022-09-07T21:56:03.685Z,29.13
2022-09-07T21:58:05.463Z,28.73
2022-09-07T22:00:08.082Z,33.65
2022-09-07T22:02:09.859Z,28.98
2022-09-07T22:04:11.633Z,29.33
2022-09-07T22:06:14.291Z,31.85
2022-09-07T22:08:16.590Z,26.85
2022-09-07T22:10:18.405Z,24.60
2022-09-07T22:12:20.154Z,23.85
2022-09-07T22:14:22.024Z,26.45
2022-09-07T22:16:24.469Z,25.77
2022-09-07T22:18:26.270Z,25.35
2022-09-07T22:20:28.029Z,26.25
2022-09-07T22:22:29.770Z,34.55
2022-09-07T22:24:31.544Z,28.67
2022-09-07T22:26:35.869Z,31.58
2022-09-07T22:28:38.844Z,36.78
2022-09-07T22:30:40.581Z,25.10
2022-09-07T22:32:50.089Z,21.80
2022-09-07T22:34:51.856Z,22.60
2022-09-07T22:36:53.583Z,17.70
2022-09-07T22:38:57.946Z,17.30
2022-09-07T22:41:06.837Z,15.30
2022-09-07T22:43:08.606Z,15.20
2022-09-07T22:45:10.584Z,18.60
2022-09-07T22:47:12.345Z,17.42
2022-09-07T22:49:16.193Z,13.68
2022-09-07T22:51:17.964Z,18.77
2022-09-07T22:53:19.736Z,14.50
2022-09-07T22:55:21.517Z,16.33
2022-09-07T22:57:23.256Z,15.93
2022-09-07T22:59:25.012Z,14.15
2022-09-07T23:01:29.093Z,16.67
2022-09-07T23:03:32.507Z,13.10
2022-09-07T23:07:39.675Z,15.80
2022-09-07T23:09:41.410Z,18.73
2022-09-07T23:11:44.151Z,14.23
2022-09-07T23:13:46.003Z,14.43
2022-09-07T23:15:48.791Z,12.38
2022-09-07T23:17:51.499Z,14.27
2022-09-07T23:19:53.255Z,11.45
2022-09-07T23:21:55.063Z,12.60
2022-09-07T23:24:04.516Z,13.00
2022-09-07T23:26:06.639Z,14.23
2022-09-07T23:28:11.906Z,15.30
2022-09-07T23:30:13.799Z,13.68
2022-09-07T23:32:15.601Z,11.50
2022-09-07T23:34:17.450Z,16.27
2022-09-07T23:36:19.891Z,16.45
2022-09-07T23:38:21.671Z,13.05
2022-09-07T23:40:23.556Z,12.85
2022-09-07T23:42:25.290Z,11.50
2022-09-07T23:44:27.064Z,13.93
2022-09-07T23:46:28.867Z,13.23
2022-09-07T23:48:30.982Z,11.07
2022-09-07T23:50:32.710Z,14.10
2022-09-07T23:52:34.729Z,14.98
2022-09-07T23:54:36.514Z,10.70
2022-09-07T23:56:38.241Z,14.27
2022-09-07T23:58:39.966Z,14.18
